sensor_id;sensor_type;location;lat;lon;timestamp;pressure;altitude;pressure_sealevel;temperature;humidity
73103;BME280;61294;65.988;29.172;2024-01-25T00:02:13;97028.84;;;-15.97;100.00
73103;BME280;61294;65.988;29.172;2024-01-25T00:04:39;97054.47;;;-15.79;100.00
73103;BME280;61294;65.988;29.172;2024-01-25T00:07:08;97058.19;;;-15.74;100.00
73103;BME280;61294;65.988;29.172;2024-01-25T00:09:35;97060.22;;;-15.82;100.00
73103;BME280;61294;65.988;29.172;2024-01-25T00:12:01;97054.06;;;-15.85;100.00
73103;BME280;61294;65.988;29.172;2024-01-25T00:14:26;97075.09;;;-15.85;100.00
73103;BME280;61294;65.988;29.172;2024-01-25T00:16:52;97076.66;;;-15.87;100.00
73103;BME280;61294;65.988;29.172;2024-01-25T00:19:18;97096.63;;;-15.90;100.00
73103;BME280;61294;65.988;29.172;2024-01-25T00:21:44;97076.41;;;-16.02;100.00
73103;BME280;61294;65.988;29.172;2024-01-25T00:24:13;97095.63;;;-16.04;100.00
73103;BME280;61294;65.988;29.172;2024-01-25T00:26:39;97092.34;;;-16.03;100.00
73103;BME280;61294;65.988;29.172;2024-01-25T00:29:05;97104.94;;;-16.03;100.00
73103;BME280;61294;65.988;29.172;2024-01-25T00:31:31;97097.81;;;-15.96;100.00
73103;BME280;61294;65.988;29.172;2024-01-25T00:34:00;97101.56;;;-15.91;100.00
73103;BME280;61294;65.988;29.172;2024-01-25T00:36:26;97087.28;;;-15.91;100.00
73103;BME280;61294;65.988;29.172;2024-01-25T00:38:53;97101.34;;;-15.83;100.00
73103;BME280;61294;65.988;29.172;2024-01-25T00:41:19;97109.13;;;-15.79;100.00
73103;BME280;61294;65.988;29.172;2024-01-25T00:43:45;97118.78;;;-15.86;100.00
73103;BME280;61294;65.988;29.172;2024-01-25T00:46:11;97115.22;;;-15.76;100.00
73103;BME280;61294;65.988;29.172;2024-01-25T00:48:38;97112.69;;;-15.76;100.00
73103;BME280;61294;65.988;29.172;2024-01-25T00:51:07;97099.16;;;-15.90;100.00
73103;BME280;61294;65.988;29.172;2024-01-25T00:53:34;97104.63;;;-15.84;100.00
73103;BME280;61294;65.988;29.172;2024-01-25T00:56:00;97121.28;;;-15.74;100.00
73103;BME280;61294;65.988;29.172;2024-01-25T00:58:26;97129.50;;;-15.76;100.00
73103;BME280;61294;65.988;29.172;2024-01-25T01:00:52;97125.31;;;-15.76;100.00
73103;BME280;61294;65.988;29.172;2024-01-25T01:03:19;97087.28;;;-16.03;100.00
73103;BME280;61294;65.988;29.172;2024-01-25T01:05:45;97129.19;;;-15.81;100.00
73103;BME280;61294;65.988;29.172;2024-01-25T01:08:12;97140.81;;;-15.83;100.00
73103;BME280;61294;65.988;29.172;2024-01-25T01:10:38;97115.69;;;-15.93;100.00
73103;BME280;61294;65.988;29.172;2024-01-25T01:13:04;97136.34;;;-15.87;100.00
73103;BME280;61294;65.988;29.172;2024-01-25T01:15:30;97143.75;;;-15.89;100.00
73103;BME280;61294;65.988;29.172;2024-01-25T01:17:59;97104.25;;;-16.12;100.00
73103;BME280;61294;65.988;29.172;2024-01-25T01:20:24;97149.03;;;-15.98;100.00
73103;BME280;61294;65.988;29.172;2024-01-25T01:22:52;97151.31;;;-16.01;100.00
73103;BME280;61294;65.988;29.172;2024-01-25T01:25:17;97160.00;;;-15.97;100.00
73103;BME280;61294;65.988;29.172;2024-01-25T01:27:43;97156.59;;;-15.98;100.00
73103;BME280;61294;65.988;29.172;2024-01-25T01:30:09;97134.31;;;-16.15;100.00
73103;BME280;61294;65.988;29.172;2024-01-25T01:32:35;97158.13;;;-16.00;100.00
73103;BME280;61294;65.988;29.172;2024-01-25T01:35:01;97170.97;;;-15.96;100.00
73103;BME280;61294;65.988;29.172;2024-01-25T01:37:27;97125.63;;;-16.19;100.00
73103;BME280;61294;65.988;29.172;2024-01-25T01:39:53;97169.44;;;-15.94;100.00
73103;BME280;61294;65.988;29.172;2024-01-25T01:42:21;97188.22;;;-15.91;100.00
73103;BME280;61294;65.988;29.172;2024-01-25T01:44:50;97183.38;;;-15.88;100.00
73103;BME280;61294;65.988;29.172;2024-01-25T01:47:17;97182.72;;;-15.85;100.00
73103;BME280;61294;65.988;29.172;2024-01-25T01:49:43;97176.03;;;-15.96;100.00
73103;BME280;61294;65.988;29.172;2024-01-25T01:52:10;97177.69;;;-15.97;100.00
73103;BME280;61294;65.988;29.172;2024-01-25T01:54:36;97188.31;;;-15.89;100.00
73103;BME280;61294;65.988;29.172;2024-01-25T01:57:03;97148.69;;;-16.14;100.00
73103;BME280;61294;65.988;29.172;2024-01-25T01:59:30;97189.91;;;-16.02;100.00
73103;BME280;61294;65.988;29.172;2024-01-25T02:01:56;97201.25;;;-15.85;100.00
73103;BME280;61294;65.988;29.172;2024-01-25T02:04:22;97204.69;;;-15.84;100.00
73103;BME280;61294;65.988;29.172;2024-01-25T02:06:47;97212.59;;;-15.79;100.00
73103;BME280;61294;65.988;29.172;2024-01-25T02:09:13;97212.59;;;-15.79;100.00
73103;BME280;61294;65.988;29.172;2024-01-25T02:11:39;97231.00;;;-15.81;100.00
73103;BME280;61294;65.988;29.172;2024-01-25T02:14:05;97237.34;;;-15.74;100.00
73103;BME280;61294;65.988;29.172;2024-01-25T02:16:31;97232.31;;;-15.74;100.00
73103;BME280;61294;65.988;29.172;2024-01-25T02:18:57;97234.19;;;-15.71;100.00
73103;BME280;61294;65.988;29.172;2024-01-25T02:21:23;97241.31;;;-15.66;100.00
73103;BME280;61294;65.988;29.172;2024-01-25T02:23:50;97254.69;;;-15.67;100.00
73103;BME280;61294;65.988;29.172;2024-01-25T02:26:16;97242.09;;;-15.67;100.00
73103;BME280;61294;65.988;29.172;2024-01-25T02:28:41;97265.66;;;-15.66;100.00
73103;BME280;61294;65.988;29.172;2024-01-25T02:31:07;97247.13;;;-15.67;100.00
73103;BME280;61294;65.988;29.172;2024-01-25T02:33:33;97227.78;;;-15.78;100.00
73103;BME280;61294;65.988;29.172;2024-01-25T02:35:58;97255.81;;;-15.63;100.00
73103;BME280;61294;65.988;29.172;2024-01-25T02:38:24;97161.75;;;-16.08;100.00
73103;BME280;61294;65.988;29.172;2024-01-25T02:40:50;97264.25;;;-15.63;100.00
73103;BME280;61294;65.988;29.172;2024-01-25T02:43:16;97266.13;;;-15.60;100.00
73103;BME280;61294;65.988;29.172;2024-01-25T02:45:42;97285.31;;;-15.62;100.00
73103;BME280;61294;65.988;29.172;2024-01-25T02:48:08;97296.84;;;-15.66;100.00
73103;BME280;61294;65.988;29.172;2024-01-25T02:50:34;97253.59;;;-15.82;100.00
73103;BME280;61294;65.988;29.172;2024-01-25T02:53:00;97301.25;;;-15.63;100.00
73103;BME280;61294;65.988;29.172;2024-01-25T02:55:25;97314.41;;;-15.67;100.00
73103;BME280;61294;65.988;29.172;2024-01-25T02:57:51;97287.41;;;-15.80;100.00
73103;BME280;61294;65.988;29.172;2024-01-25T03:00:17;97312.88;;;-15.65;100.00
73103;BME280;61294;65.988;29.172;2024-01-25T03:02:43;97316.41;;;-15.63;100.00
73103;BME280;61294;65.988;29.172;2024-01-25T03:05:08;97324.63;;;-15.66;100.00
73103;BME280;61294;65.988;29.172;2024-01-25T03:07:34;97327.16;;;-15.66;100.00
73103;BME280;61294;65.988;29.172;2024-01-25T03:10:00;97319.56;;;-15.66;100.00
73103;BME280;61294;65.988;29.172;2024-01-25T03:12:26;97277.50;;;-15.89;100.00
73103;BME280;61294;65.988;29.172;2024-01-25T03:14:51;97334.72;;;-15.66;100.00
73103;BME280;61294;65.988;29.172;2024-01-25T03:17:17;97346.03;;;-15.60;100.00
73103;BME280;61294;65.988;29.172;2024-01-25T03:19:43;97347.78;;;-15.59;100.00
73103;BME280;61294;65.988;29.172;2024-01-25T03:22:09;97344.28;;;-15.61;100.00
73103;BME280;61294;65.988;29.172;2024-01-25T03:24:37;97341.06;;;-15.71;100.00
73103;BME280;61294;65.988;29.172;2024-01-25T03:27:04;97354.06;;;-15.54;100.00
73103;BME280;61294;65.988;29.172;2024-01-25T03:29:30;97351.88;;;-15.50;100.00
73103;BME280;61294;65.988;29.172;2024-01-25T03:31:56;97308.78;;;-15.75;100.00
73103;BME280;61294;65.988;29.172;2024-01-25T03:34:22;97335.25;;;-15.70;100.00
73103;BME280;61294;65.988;29.172;2024-01-25T03:36:48;97365.69;;;-15.56;100.00
73103;BME280;61294;65.988;29.172;2024-01-25T03:39:15;97361.94;;;-15.61;100.00
73103;BME280;61294;65.988;29.172;2024-01-25T03:41:42;97359.06;;;-15.66;100.00
73103;BME280;61294;65.988;29.172;2024-01-25T03:44:08;97359.47;;;-15.72;100.00
73103;BME280;61294;65.988;29.172;2024-01-25T03:46:34;97369.22;;;-15.76;100.00
73103;BME280;61294;65.988;29.172;2024-01-25T03:49:00;97369.13;;;-15.78;100.00
73103;BME280;61294;65.988;29.172;2024-01-25T03:51:26;97386.59;;;-15.81;100.00
73103;BME280;61294;65.988;29.172;2024-01-25T03:53:51;97384.34;;;-15.88;100.00
73103;BME280;61294;65.988;29.172;2024-01-25T03:56:18;97406.06;;;-15.90;100.00
73103;BME280;61294;65.988;29.172;2024-01-25T03:58:44;97376.59;;;-16.02;100.00
73103;BME280;61294;65.988;29.172;2024-01-25T04:01:11;97401.69;;;-15.93;100.00
73103;BME280;61294;65.988;29.172;2024-01-25T04:03:36;97407.38;;;-15.95;100.00
73103;BME280;61294;65.988;29.172;2024-01-25T04:06:02;97405.59;;;-15.96;100.00
73103;BME280;61294;65.988;29.172;2024-01-25T04:08:28;97400.66;;;-15.95;100.00
73103;BME280;61294;65.988;29.172;2024-01-25T04:10:54;97407.38;;;-15.95;100.00
73103;BME280;61294;65.988;29.172;2024-01-25T04:13:20;97399.78;;;-15.95;100.00
73103;BME280;61294;65.988;29.172;2024-01-25T04:15:46;97408.75;;;-15.99;100.00
73103;BME280;61294;65.988;29.172;2024-01-25T04:18:11;97382.03;;;-16.07;100.00
73103;BME280;61294;65.988;29.172;2024-01-25T04:20:37;97405.59;;;-15.96;100.00
73103;BME280;61294;65.988;29.172;2024-01-25T04:23:03;97402.31;;;-15.95;100.00
73103;BME280;61294;65.988;29.172;2024-01-25T04:25:29;97406.47;;;-15.96;100.00
73103;BME280;61294;65.988;29.172;2024-01-25T04:27:55;97391.03;;;-16.11;100.00
73103;BME280;61294;65.988;29.172;2024-01-25T04:30:20;97399.00;;;-15.94;100.00
73103;BME280;61294;65.988;29.172;2024-01-25T04:32:46;97388.44;;;-16.01;100.00
73103;BME280;61294;65.988;29.172;2024-01-25T04:35:12;97385.81;;;-16.02;100.00
73103;BME280;61294;65.988;29.172;2024-01-25T04:37:38;97400.94;;;-16.02;100.00
73103;BME280;61294;65.988;29.172;2024-01-25T04:40:04;97402.09;;;-15.99;100.00
73103;BME280;61294;65.988;29.172;2024-01-25T04:42:30;97419.38;;;-15.81;100.00
73103;BME280;61294;65.988;29.172;2024-01-25T04:44:56;97423.72;;;-15.90;100.00
73103;BME280;61294;65.988;29.172;2024-01-25T04:47:22;97396.03;;;-16.01;100.00
73103;BME280;61294;65.988;29.172;2024-01-25T04:49:48;97412.53;;;-15.94;100.00
73103;BME280;61294;65.988;29.172;2024-01-25T04:52:14;97444.56;;;-15.93;100.00
73103;BME280;61294;65.988;29.172;2024-01-25T04:54:40;97443.66;;;-15.93;100.00
73103;BME280;61294;65.988;29.172;2024-01-25T04:57:06;97440.28;;;-15.94;100.00
73103;BME280;61294;65.988;29.172;2024-01-25T04:59:35;97438.63;;;-15.93;100.00
73103;BME280;61294;65.988;29.172;2024-01-25T05:02:01;97450.38;;;-15.94;100.00
73103;BME280;61294;65.988;29.172;2024-01-25T05:04:28;97429.84;;;-16.09;100.00
73103;BME280;61294;65.988;29.172;2024-01-25T05:06:56;97452.16;;;-16.03;100.00
73103;BME280;61294;65.988;29.172;2024-01-25T05:09:22;97453.81;;;-16.04;100.00
73103;BME280;61294;65.988;29.172;2024-01-25T05:11:48;97402.34;;;-16.28;100.00
73103;BME280;61294;65.988;29.172;2024-01-25T05:14:15;97464.25;;;-15.99;100.00
73103;BME280;61294;65.988;29.172;2024-01-25T05:16:41;97467.13;;;-15.94;100.00
73103;BME280;61294;65.988;29.172;2024-01-25T05:19:07;97471.31;;;-15.95;100.00
73103;BME280;61294;65.988;29.172;2024-01-25T05:21:33;97440.84;;;-16.08;100.00
73103;BME280;61294;65.988;29.172;2024-01-25T05:23:59;97469.28;;;-15.99;100.00
73103;BME280;61294;65.988;29.172;2024-01-25T05:26:26;97445.09;;;-16.07;100.00
73103;BME280;61294;65.988;29.172;2024-01-25T05:28:52;97472.28;;;-15.83;100.00
73103;BME280;61294;65.988;29.172;2024-01-25T05:31:17;97478.41;;;-15.79;100.00
73103;BME280;61294;65.988;29.172;2024-01-25T05:33:43;97447.09;;;-15.93;100.00
73103;BME280;61294;65.988;29.172;2024-01-25T05:36:09;97489.84;;;-15.72;100.00
73103;BME280;61294;65.988;29.172;2024-01-25T05:38:35;97486.69;;;-15.70;100.00
73103;BME280;61294;65.988;29.172;2024-01-25T05:41:01;97497.41;;;-15.72;100.00
73103;BME280;61294;65.988;29.172;2024-01-25T05:43:27;97485.44;;;-15.75;100.00
73103;BME280;61294;65.988;29.172;2024-01-25T05:45:53;97498.56;;;-15.69;100.00
73103;BME280;61294;65.988;29.172;2024-01-25T05:48:19;97509.13;;;-15.63;100.00
73103;BME280;61294;65.988;29.172;2024-01-25T05:50:45;97493.13;;;-15.73;100.00
73103;BME280;61294;65.988;29.172;2024-01-25T05:53:10;97516.06;;;-15.60;100.00
73103;BME280;61294;65.988;29.172;2024-01-25T05:55:36;97416.03;;;-16.14;100.00
73103;BME280;61294;65.988;29.172;2024-01-25T05:58:02;97525.75;;;-15.54;100.00
73103;BME280;61294;65.988;29.172;2024-01-25T06:00:28;97535.56;;;-15.47;100.00
73103;BME280;61294;65.988;29.172;2024-01-25T06:02:54;97540.09;;;-15.43;100.00
73103;BME280;61294;65.988;29.172;2024-01-25T06:05:19;97530.91;;;-15.53;100.00
73103;BME280;61294;65.988;29.172;2024-01-25T06:07:45;97538.03;;;-15.37;100.00
73103;BME280;61294;65.988;29.172;2024-01-25T06:10:11;97543.06;;;-15.37;100.00
73103;BME280;61294;65.988;29.172;2024-01-25T06:12:37;97549.91;;;-15.36;100.00
73103;BME280;61294;65.988;29.172;2024-01-25T06:15:03;97511.25;;;-15.57;100.00
73103;BME280;61294;65.988;29.172;2024-01-25T06:17:30;97549.91;;;-15.36;100.00
73103;BME280;61294;65.988;29.172;2024-01-25T06:19:56;97552.03;;;-15.40;100.00
73103;BME280;61294;65.988;29.172;2024-01-25T06:22:22;97570.78;;;-15.26;100.00
73103;BME280;61294;65.988;29.172;2024-01-25T06:24:48;97584.69;;;-15.21;100.00
73103;BME280;61294;65.988;29.172;2024-01-25T06:27:14;97589.72;;;-15.21;100.00
73103;BME280;61294;65.988;29.172;2024-01-25T06:29:40;97604.09;;;-15.20;100.00
73103;BME280;61294;65.988;29.172;2024-01-25T06:32:06;97602.25;;;-15.23;100.00
73103;BME280;61294;65.988;29.172;2024-01-25T06:34:32;97609.69;;;-15.24;100.00
73103;BME280;61294;65.988;29.172;2024-01-25T06:36:58;97597.06;;;-15.24;100.00
73103;BME280;61294;65.988;29.172;2024-01-25T06:39:23;97601.34;;;-15.23;100.00
73103;BME280;61294;65.988;29.172;2024-01-25T06:41:49;97611.94;;;-15.17;100.00
73103;BME280;61294;65.988;29.172;2024-01-25T06:44:16;97611.03;;;-15.18;100.00
73103;BME280;61294;65.988;29.172;2024-01-25T06:46:42;97544.63;;;-15.71;100.00
73103;BME280;61294;65.988;29.172;2024-01-25T06:49:08;97625.25;;;-15.30;100.00
73103;BME280;61294;65.988;29.172;2024-01-25T06:51:34;97637.09;;;-15.29;100.00
73103;BME280;61294;65.988;29.172;2024-01-25T06:54:00;97608.25;;;-15.43;100.00
73103;BME280;61294;65.988;29.172;2024-01-25T06:56:25;97615.16;;;-15.40;100.00
73103;BME280;61294;65.988;29.172;2024-01-25T06:58:51;97631.06;;;-15.31;100.00
73103;BME280;61294;65.988;29.172;2024-01-25T07:01:21;97615.56;;;-15.36;100.00
73103;BME280;61294;65.988;29.172;2024-01-25T07:03:48;97611.53;;;-15.44;100.00
73103;BME280;61294;65.988;29.172;2024-01-25T07:06:17;97630.84;;;-15.34;100.00
73103;BME280;61294;65.988;29.172;2024-01-25T07:08:43;97638.16;;;-15.37;100.00
73103;BME280;61294;65.988;29.172;2024-01-25T07:11:09;97643.22;;;-15.37;100.00
73103;BME280;61294;65.988;29.172;2024-01-25T07:13:35;97646.09;;;-15.33;100.00
73103;BME280;61294;65.988;29.172;2024-01-25T07:16:01;97632.13;;;-15.50;100.00
73103;BME280;61294;65.988;29.172;2024-01-25T07:18:27;97647.59;;;-15.35;100.00
73103;BME280;61294;65.988;29.172;2024-01-25T07:20:53;97653.91;;;-15.30;100.00
73103;BME280;61294;65.988;29.172;2024-01-25T07:23:21;97642.72;;;-15.43;100.00
73103;BME280;61294;65.988;29.172;2024-01-25T07:25:47;97665.16;;;-15.36;100.00
73103;BME280;61294;65.988;29.172;2024-01-25T07:28:13;97657.34;;;-15.39;100.00
73103;BME280;61294;65.988;29.172;2024-01-25T07:30:39;97657.00;;;-15.44;100.00
73103;BME280;61294;65.988;29.172;2024-01-25T07:33:05;97675.16;;;-15.38;100.00
73103;BME280;61294;65.988;29.172;2024-01-25T07:35:31;97680.72;;;-15.42;100.00
73103;BME280;61294;65.988;29.172;2024-01-25T07:37:57;97637.63;;;-15.66;100.00
73103;BME280;61294;65.988;29.172;2024-01-25T07:40:23;97694.47;;;-15.38;100.00
73103;BME280;61294;65.988;29.172;2024-01-25T07:42:49;97702.94;;;-15.38;100.00
73103;BME280;61294;65.988;29.172;2024-01-25T07:45:15;97667.91;;;-15.66;100.00
73103;BME280;61294;65.988;29.172;2024-01-25T07:47:41;97691.56;;;-15.33;100.00
73103;BME280;61294;65.988;29.172;2024-01-25T07:50:08;97667.22;;;-15.42;100.00
73103;BME280;61294;65.988;29.172;2024-01-25T07:52:34;97709.78;;;-15.15;100.00
73103;BME280;61294;65.988;29.172;2024-01-25T07:54:59;97705.84;;;-15.01;100.00
73103;BME280;61294;65.988;29.172;2024-01-25T07:57:25;97702.63;;;-14.88;100.00
73103;BME280;61294;65.988;29.172;2024-01-25T07:59:51;97714.50;;;-14.87;100.00
73103;BME280;61294;65.988;29.172;2024-01-25T08:02:17;97717.31;;;-14.94;100.00
73103;BME280;61294;65.988;29.172;2024-01-25T08:04:43;97718.97;;;-14.95;100.00
73103;BME280;61294;65.988;29.172;2024-01-25T08:07:09;97735.88;;;-14.94;100.00
73103;BME280;61294;65.988;29.172;2024-01-25T08:09:35;97743.22;;;-14.97;100.00
73103;BME280;61294;65.988;29.172;2024-01-25T08:12:00;97645.25;;;-15.43;100.00
73103;BME280;61294;65.988;29.172;2024-01-25T08:14:26;97736.91;;;-14.91;100.00
73103;BME280;61294;65.988;29.172;2024-01-25T08:16:52;97748.66;;;-14.92;100.00
73103;BME280;61294;65.988;29.172;2024-01-25T08:19:18;97729.38;;;-15.02;100.00
73103;BME280;61294;65.988;29.172;2024-01-25T08:21:44;97735.13;;;-14.93;100.00
73103;BME280;61294;65.988;29.172;2024-01-25T08:24:11;97729.09;;;-14.95;100.00
73103;BME280;61294;65.988;29.172;2024-01-25T08:26:37;97734.25;;;-14.93;100.00
73103;BME280;61294;65.988;29.172;2024-01-25T08:29:03;97755.19;;;-14.84;100.00
73103;BME280;61294;65.988;29.172;2024-01-25T08:31:28;97757.59;;;-14.85;100.00
73103;BME280;61294;65.988;29.172;2024-01-25T08:33:54;97757.84;;;-14.82;100.00
73103;BME280;61294;65.988;29.172;2024-01-25T08:36:20;97752.91;;;-14.81;100.00
73103;BME280;61294;65.988;29.172;2024-01-25T08:38:46;97760.59;;;-14.79;100.00
73103;BME280;61294;65.988;29.172;2024-01-25T08:41:13;97720.59;;;-14.95;100.00
73103;BME280;61294;65.988;29.172;2024-01-25T08:43:40;97765.13;;;-14.75;100.00
73103;BME280;61294;65.988;29.172;2024-01-25T08:46:07;97755.81;;;-14.76;100.00
73103;BME280;61294;65.988;29.172;2024-01-25T08:48:32;97686.81;;;-15.18;100.00
73103;BME280;61294;65.988;29.172;2024-01-25T08:50:58;97765.94;;;-14.76;100.00
73103;BME280;61294;65.988;29.172;2024-01-25T08:53:24;97777.78;;;-14.75;100.00
73103;BME280;61294;65.988;29.172;2024-01-25T08:55:56;97754.56;;;-14.81;100.00
73103;BME280;61294;65.988;29.172;2024-01-25T08:58:22;97792.19;;;-14.74;100.00
73103;BME280;61294;65.988;29.172;2024-01-25T09:00:48;97761.38;;;-14.80;100.00
73103;BME280;61294;65.988;29.172;2024-01-25T09:03:17;97778.84;;;-14.61;100.00
73103;BME280;61294;65.988;29.172;2024-01-25T09:05:43;97745.44;;;-14.79;100.00
73103;BME280;61294;65.988;29.172;2024-01-25T09:08:12;97784.75;;;-14.61;100.00
73103;BME280;61294;65.988;29.172;2024-01-25T09:10:39;97797.50;;;-14.49;100.00
73103;BME280;61294;65.988;29.172;2024-01-25T09:13:05;97777.19;;;-14.61;100.00
73103;BME280;61294;65.988;29.172;2024-01-25T09:15:31;97800.16;;;-14.47;100.00
73103;BME280;61294;65.988;29.172;2024-01-25T09:17:57;97798.25;;;-14.50;100.00
73103;BME280;61294;65.988;29.172;2024-01-25T09:20:23;97786.50;;;-14.49;100.00
73103;BME280;61294;65.988;29.172;2024-01-25T09:22:49;97795.63;;;-14.51;100.00
73103;BME280;61294;65.988;29.172;2024-01-25T09:25:14;97792.84;;;-14.54;100.00
73103;BME280;61294;65.988;29.172;2024-01-25T09:27:41;97803.59;;;-14.57;100.00
73103;BME280;61294;65.988;29.172;2024-01-25T09:30:07;97785.19;;;-14.66;100.00
73103;BME280;61294;65.988;29.172;2024-01-25T09:32:33;97786.97;;;-14.65;100.00
73103;BME280;61294;65.988;29.172;2024-01-25T09:34:59;97803.09;;;-14.53;100.00
73103;BME280;61294;65.988;29.172;2024-01-25T09:37:25;97767.91;;;-14.72;100.00
73103;BME280;61294;65.988;29.172;2024-01-25T09:39:51;97823.56;;;-14.50;100.00
73103;BME280;61294;65.988;29.172;2024-01-25T09:42:18;97812.06;;;-14.46;100.00
73103;BME280;61294;65.988;29.172;2024-01-25T09:44:44;97820.09;;;-14.40;100.00
73103;BME280;61294;65.988;29.172;2024-01-25T09:47:11;97809.53;;;-14.46;100.00
73103;BME280;61294;65.988;29.172;2024-01-25T09:49:37;97808.97;;;-14.42;100.00
73103;BME280;61294;65.988;29.172;2024-01-25T09:52:04;97829.81;;;-14.34;100.00
73103;BME280;61294;65.988;29.172;2024-01-25T09:54:36;97836.50;;;-14.35;100.00
73103;BME280;61294;65.988;29.172;2024-01-25T09:57:28;97784.97;;;-14.69;100.00
73103;BME280;61294;65.988;29.172;2024-01-25T09:59:56;97835.75;;;-14.34;100.00
73103;BME280;61294;65.988;29.172;2024-01-25T10:02:22;97838.16;;;-14.35;100.00
73103;BME280;61294;65.988;29.172;2024-01-25T10:04:51;97845.88;;;-14.34;100.00
73103;BME280;61294;65.988;29.172;2024-01-25T10:07:38;97822.28;;;-14.45;100.00
73103;BME280;61294;65.988;29.172;2024-01-25T10:10:05;97854.47;;;-14.32;100.00
73103;BME280;61294;65.988;29.172;2024-01-25T10:12:31;97856.34;;;-14.29;100.00
73103;BME280;61294;65.988;29.172;2024-01-25T10:14:58;97859.91;;;-14.27;100.00
73103;BME280;61294;65.988;29.172;2024-01-25T10:17:24;97860.78;;;-14.27;100.00
73103;BME280;61294;65.988;29.172;2024-01-25T10:19:49;97860.13;;;-14.24;100.00
73103;BME280;61294;65.988;29.172;2024-01-25T10:22:15;97858.25;;;-14.27;100.00
73103;BME280;61294;65.988;29.172;2024-01-25T10:24:41;97844.88;;;-14.36;100.00
73103;BME280;61294;65.988;29.172;2024-01-25T10:27:08;97867.13;;;-14.32;100.00
73103;BME280;61294;65.988;29.172;2024-01-25T10:29:37;97869.78;;;-14.30;100.00
73103;BME280;61294;65.988;29.172;2024-01-25T10:32:04;97885.94;;;-14.28;100.00
73103;BME280;61294;65.988;29.172;2024-01-25T10:34:35;97870.53;;;-14.31;100.00
73103;BME280;61294;65.988;29.172;2024-01-25T10:37:05;97880.53;;;-14.33;100.00
73103;BME280;61294;65.988;29.172;2024-01-25T10:39:31;97882.94;;;-14.34;100.00
73103;BME280;61294;65.988;29.172;2024-01-25T10:41:58;97871.34;;;-14.43;100.00
73103;BME280;61294;65.988;29.172;2024-01-25T10:44:25;97883.31;;;-14.30;100.00
73103;BME280;61294;65.988;29.172;2024-01-25T10:46:51;97867.66;;;-14.36;100.00
73103;BME280;61294;65.988;29.172;2024-01-25T10:49:17;97899.75;;;-14.25;100.00
73103;BME280;61294;65.988;29.172;2024-01-25T10:51:44;97900.50;;;-14.26;100.00
73103;BME280;61294;65.988;29.172;2024-01-25T10:54:15;97899.50;;;-14.28;100.00
73103;BME280;61294;65.988;29.172;2024-01-25T10:56:42;97909.22;;;-14.22;100.00
73103;BME280;61294;65.988;29.172;2024-01-25T10:59:08;97923.09;;;-14.17;100.00
73103;BME280;61294;65.988;29.172;2024-01-25T11:01:36;97918.91;;;-14.16;100.00
73103;BME280;61294;65.988;29.172;2024-01-25T11:04:02;97915.41;;;-14.18;100.00
73103;BME280;61294;65.988;29.172;2024-01-25T11:06:28;97922.00;;;-14.20;100.00
73103;BME280;61294;65.988;29.172;2024-01-25T11:09:07;97903.19;;;-14.34;100.00
73103;BME280;61294;65.988;29.172;2024-01-25T11:11:35;97906.81;;;-14.31;100.00
73103;BME280;61294;65.988;29.172;2024-01-25T11:14:02;97929.19;;;-14.25;100.00
73103;BME280;61294;65.988;29.172;2024-01-25T11:16:30;97929.19;;;-14.25;100.00
73103;BME280;61294;65.988;29.172;2024-01-25T11:19:00;97931.50;;;-14.28;100.00
73103;BME280;61294;65.988;29.172;2024-01-25T11:21:46;97895.25;;;-14.49;100.00
73103;BME280;61294;65.988;29.172;2024-01-25T11:24:22;97906.16;;;-14.50;100.00
73103;BME280;61294;65.988;29.172;2024-01-25T11:26:49;97940.50;;;-14.32;100.00
73103;BME280;61294;65.988;29.172;2024-01-25T11:29:16;97946.06;;;-14.36;100.00
73103;BME280;61294;65.988;29.172;2024-01-25T11:31:46;97954.41;;;-14.37;100.00
73103;BME280;61294;65.988;29.172;2024-01-25T11:34:13;97934.72;;;-14.51;100.00
73103;BME280;61294;65.988;29.172;2024-01-25T11:36:41;97965.56;;;-14.45;100.00
73103;BME280;61294;65.988;29.172;2024-01-25T11:39:09;97969.88;;;-14.54;100.00
73103;BME280;61294;65.988;29.172;2024-01-25T11:41:36;97972.16;;;-14.57;100.00
73103;BME280;61294;65.988;29.172;2024-01-25T11:44:03;97984.66;;;-14.59;100.00
73103;BME280;61294;65.988;29.172;2024-01-25T11:46:30;97998.22;;;-14.59;100.00
73103;BME280;61294;65.988;29.172;2024-01-25T11:48:56;97994.56;;;-14.62;100.00
73103;BME280;61294;65.988;29.172;2024-01-25T11:51:22;97984.47;;;-14.72;100.00
73103;BME280;61294;65.988;29.172;2024-01-25T11:53:48;97978.97;;;-14.56;100.00
73103;BME280;61294;65.988;29.172;2024-01-25T11:56:19;97969.94;;;-14.65;100.00
73103;BME280;61294;65.988;29.172;2024-01-25T11:58:46;97971.56;;;-14.65;100.00
73103;BME280;61294;65.988;29.172;2024-01-25T12:01:13;97991.50;;;-14.58;100.00
73103;BME280;61294;65.988;29.172;2024-01-25T12:03:39;97976.19;;;-14.60;100.00
73103;BME280;61294;65.988;29.172;2024-01-25T12:06:06;98006.81;;;-14.46;100.00
73103;BME280;61294;65.988;29.172;2024-01-25T12:08:35;97982.91;;;-14.60;100.00
73103;BME280;61294;65.988;29.172;2024-01-25T12:11:10;97969.03;;;-14.65;100.00
73103;BME280;61294;65.988;29.172;2024-01-25T12:13:39;98011.59;;;-14.49;100.00
73103;BME280;61294;65.988;29.172;2024-01-25T12:16:06;97998.97;;;-14.60;100.00
73103;BME280;61294;65.988;29.172;2024-01-25T12:18:33;98019.84;;;-14.52;100.00
73103;BME280;61294;65.988;29.172;2024-01-25T12:21:02;98011.22;;;-14.54;100.00
73103;BME280;61294;65.988;29.172;2024-01-25T12:23:38;98002.94;;;-14.63;100.00
73103;BME280;61294;65.988;29.172;2024-01-25T12:26:09;97994.34;;;-14.76;100.00
73103;BME280;61294;65.988;29.172;2024-01-25T12:28:36;98013.94;;;-14.73;100.00